createdAt,value
2018-04-19T00:01:34.179Z,16.77
2018-04-19T00:04:01.827Z,16.20
2018-04-19T00:06:29.445Z,16.43
2018-04-19T00:08:57.099Z,14.97
2018-04-19T00:11:24.720Z,17.87
2018-04-19T00:13:52.375Z,16.07
2018-04-19T00:16:19.991Z,16.57
2018-04-19T00:18:47.623Z,18.80
2018-04-19T00:21:15.258Z,16.80
2018-04-19T00:23:43.536Z,18.20
2018-04-19T00:26:11.182Z,15.23
2018-04-19T00:28:38.802Z,17.70
2018-04-19T00:31:06.453Z,17.60
2018-04-19T00:33:34.076Z,17.63
2018-04-19T00:36:01.748Z,16.43
2018-04-19T00:38:29.376Z,18.57
2018-04-19T00:40:57.021Z,18.23
2018-04-19T00:43:24.635Z,17.77
2018-04-19T00:45:52.386Z,17.90
2018-04-19T00:48:20.056Z,16.57
2018-04-19T00:50:47.710Z,17.47
2018-04-19T00:53:15.327Z,16.60
2018-04-19T00:55:42.975Z,17.40
2018-04-19T00:58:10.701Z,17.40
2018-04-19T01:00:38.342Z,17.10
2018-04-19T01:03:06.027Z,18.30
2018-04-19T01:05:33.690Z,17.70
2018-04-19T01:08:01.326Z,17.30
2018-04-19T01:10:29.011Z,17.10
2018-04-19T01:12:56.636Z,17.97
2018-04-19T01:15:24.267Z,17.63
2018-04-19T01:17:51.901Z,17.40
2018-04-19T01:20:19.538Z,13.60
2018-04-19T01:22:47.224Z,17.40
2018-04-19T01:25:14.877Z,18.27
2018-04-19T01:27:42.483Z,19.83
2018-04-19T01:30:10.220Z,19.50
2018-04-19T01:32:37.864Z,18.03
2018-04-19T01:35:05.479Z,19.17
2018-04-19T01:37:33.200Z,19.17
2018-04-19T01:40:00.859Z,18.50
2018-04-19T01:42:28.524Z,15.07
2018-04-19T01:44:55.510Z,19.70
2018-04-19T01:47:23.230Z,18.37
2018-04-19T01:49:50.834Z,18.83
2018-04-19T01:52:18.564Z,20.30
2018-04-19T01:54:46.182Z,18.47
2018-04-19T01:57:13.822Z,19.50
2018-04-19T01:59:41.436Z,20.93
2018-04-19T02:02:09.069Z,19.80
2018-04-19T02:04:36.779Z,18.53
2018-04-19T02:07:04.432Z,17.30
2018-04-19T02:09:32.099Z,19.23
2018-04-19T02:11:59.764Z,20.50
2018-04-19T02:14:27.391Z,20.30
2018-04-19T02:16:55.034Z,20.13
2018-04-19T02:19:22.647Z,19.20
2018-04-19T02:21:50.286Z,19.37
2018-04-19T02:24:17.905Z,17.00
2018-04-19T02:26:45.542Z,18.73
2018-04-19T02:29:13.158Z,19.20
2018-04-19T02:31:40.787Z,17.23
2018-04-19T02:34:08.418Z,15.60
2018-04-19T02:36:36.037Z,17.83
2018-04-19T02:39:03.666Z,15.00
2018-04-19T02:41:31.281Z,16.77
2018-04-19T02:43:58.968Z,15.47
2018-04-19T02:46:26.582Z,17.73
2018-04-19T02:48:54.279Z,16.60
2018-04-19T02:51:21.899Z,18.07
2018-04-19T02:53:49.534Z,15.43
2018-04-19T02:56:17.148Z,15.60
2018-04-19T02:58:44.786Z,14.90
2018-04-19T03:01:12.423Z,15.97
2018-04-19T03:03:40.054Z,15.17
2018-04-19T03:06:07.675Z,17.13
2018-04-19T03:08:35.311Z,16.40
2018-04-19T03:11:02.948Z,17.67
2018-04-19T03:13:30.582Z,18.73
2018-04-19T03:15:58.200Z,16.87
2018-04-19T03:18:25.839Z,18.07
2018-04-19T03:20:53.450Z,16.77
2018-04-19T03:23:21.146Z,15.17
2018-04-19T03:25:48.758Z,16.77
2018-04-19T03:28:16.399Z,12.27
2018-04-19T03:30:44.044Z,12.13
2018-04-19T03:33:11.687Z,15.83
2018-04-19T03:35:39.302Z,14.60
2018-04-19T03:38:07.027Z,16.30
2018-04-19T03:40:34.643Z,14.60
2018-04-19T03:43:02.264Z,16.60
2018-04-19T03:45:30.110Z,14.43
2018-04-19T03:47:57.727Z,15.40
2018-04-19T03:50:25.362Z,16.17
2018-04-19T03:52:52.975Z,14.63
2018-04-19T03:55:20.663Z,16.30
2018-04-19T03:57:48.328Z,13.90
2018-04-19T04:00:15.986Z,15.70
2018-04-19T04:02:43.616Z,12.60
2018-04-19T04:05:11.251Z,13.80
2018-04-19T04:07:38.864Z,13.90
2018-04-19T04:10:06.507Z,11.33
2018-04-19T04:12:34.203Z,14.90
2018-04-19T04:15:01.902Z,15.93
2018-04-19T04:17:41.498Z,15.60
2018-04-19T04:20:20.937Z,16.73
2018-04-19T04:23:02.028Z,15.40
2018-04-19T04:25:29.671Z,16.33
2018-04-19T04:27:57.279Z,17.40
2018-04-19T04:30:24.912Z,16.57
2018-04-19T04:32:52.571Z,16.80
2018-04-19T04:35:20.301Z,16.13
2018-04-19T04:37:47.889Z,16.80
2018-04-19T04:40:15.559Z,17.20
2018-04-19T04:42:43.179Z,15.07
2018-04-19T04:45:10.825Z,15.10
2018-04-19T04:47:38.438Z,15.93
2018-04-19T04:50:06.078Z,15.83
2018-04-19T04:52:33.762Z,16.53
2018-04-19T04:55:01.370Z,15.60
2018-04-19T04:57:29.015Z,16.33
2018-04-19T04:59:56.654Z,16.00
2018-04-19T05:02:24.286Z,16.60
2018-04-19T05:04:51.978Z,15.10
2018-04-19T05:07:19.617Z,15.13
2018-04-19T05:09:47.307Z,15.70
2018-04-19T05:12:14.946Z,16.23
2018-04-19T05:14:42.562Z,14.80
2018-04-19T05:17:10.295Z,14.47
2018-04-19T05:19:37.954Z,16.90
2018-04-19T05:22:05.619Z,15.00
2018-04-19T05:24:33.275Z,18.03
2018-04-19T05:27:00.906Z,15.80
2018-04-19T05:29:28.607Z,14.20
2018-04-19T05:31:56.266Z,14.83
2018-04-19T05:34:23.934Z,14.77
2018-04-19T05:36:51.599Z,15.97
2018-04-19T05:39:19.211Z,16.37
2018-04-19T05:41:46.842Z,17.00
2018-04-19T05:44:14.450Z,17.97
2018-04-19T05:46:42.133Z,18.87
2018-04-19T05:49:09.742Z,17.63
2018-04-19T05:51:37.458Z,19.00
2018-04-19T05:54:05.326Z,15.87
2018-04-19T05:56:32.967Z,19.70
2018-04-19T05:59:00.591Z,21.57
2018-04-19T06:01:28.222Z,18.90
2018-04-19T06:03:55.847Z,22.07
2018-04-19T06:06:23.462Z,23.37
2018-04-19T06:08:51.099Z,17.07
2018-04-19T06:11:18.719Z,20.90
2018-04-19T06:13:46.431Z,23.23
2018-04-19T06:16:14.052Z,20.57
2018-04-19T06:18:41.761Z,20.37
2018-04-19T06:21:09.384Z,18.13
2018-04-19T06:23:37.014Z,22.77
2018-04-19T06:26:04.632Z,22.37
2018-04-19T06:28:32.307Z,21.63
2018-04-19T06:30:59.926Z,22.70
2018-04-19T06:33:27.569Z,20.77
2018-04-19T06:35:55.305Z,20.93
2018-04-19T06:38:22.939Z,20.60
2018-04-19T06:40:50.554Z,21.37
2018-04-19T06:43:18.259Z,20.77
2018-04-19T06:45:45.943Z,24.13
2018-04-19T06:48:13.574Z,20.97
2018-04-19T06:50:42.027Z,22.03
2018-04-19T06:53:09.742Z,21.63
2018-04-19T06:55:37.415Z,23.37
2018-04-19T06:58:05.070Z,21.17
2018-04-19T07:00:32.830Z,20.97
2018-04-19T07:03:00.596Z,24.30
2018-04-19T07:05:28.262Z,21.93
2018-04-19T07:07:55.899Z,22.10
2018-04-19T07:10:23.756Z,21.70
2018-04-19T07:12:51.410Z,23.93
2018-04-19T07:15:19.217Z,23.03
2018-04-19T07:17:46.827Z,22.20
2018-04-19T07:20:14.547Z,21.93
2018-04-19T07:22:42.164Z,20.53
2018-04-19T07:25:09.807Z,20.40
2018-04-19T07:27:37.415Z,20.70
2018-04-19T07:30:05.094Z,18.27
2018-04-19T07:32:32.715Z,21.17
2018-04-19T07:35:00.355Z,19.57
2018-04-19T07:37:28.078Z,19.53
2018-04-19T07:39:55.715Z,18.17
2018-04-19T07:42:23.405Z,18.93
2018-04-19T07:44:51.042Z,16.03
2018-04-19T07:47:18.664Z,16.50
2018-04-19T07:49:46.398Z,16.17
2018-04-19T07:52:14.010Z,13.37
2018-04-19T07:54:41.722Z,13.40
2018-04-19T07:57:09.386Z,13.33
2018-04-19T07:59:37.041Z,12.70
2018-04-19T08:02:04.806Z,8.73
2018-04-19T08:04:32.473Z,10.30
2018-04-19T08:07:00.096Z,10.37
2018-04-19T08:09:27.731Z,8.57
2018-04-19T08:11:55.360Z,9.83
2018-04-19T08:14:23.016Z,10.67
2018-04-19T08:16:50.636Z,10.57
2018-04-19T08:19:18.272Z,7.97
2018-04-19T08:21:45.883Z,9.17
2018-04-19T08:24:13.565Z,6.90
2018-04-19T08:26:41.228Z,9.97
2018-04-19T08:29:08.895Z,8.70
2018-04-19T08:31:36.499Z,8.67
2018-04-19T08:34:04.297Z,8.97
2018-04-19T08:36:31.984Z,8.20
2018-04-19T08:38:59.642Z,9.53
2018-04-19T08:41:27.408Z,8.03
2018-04-19T08:43:55.015Z,7.97
2018-04-19T08:46:22.650Z,8.87
2018-04-19T08:48:50.271Z,11.13
2018-04-19T08:51:17.956Z,8.80
2018-04-19T08:53:45.557Z,9.23
2018-04-19T08:56:13.186Z,8.73
2018-04-19T08:58:40.798Z,10.37
2018-04-19T09:01:08.512Z,10.23
2018-04-19T09:03:36.171Z,9.33
2018-04-19T09:06:03.830Z,9.17
2018-04-19T09:08:31.492Z,9.47
2018-04-19T09:10:59.130Z,8.70
2018-04-19T09:13:26.821Z,9.37
2018-04-19T09:15:54.473Z,7.73
2018-04-19T09:18:22.078Z,8.17
2018-04-19T09:20:49.719Z,8.90
2018-04-19T09:23:17.381Z,8.17
2018-04-19T09:25:45.133Z,8.17
2018-04-19T09:28:12.748Z,7.97
2018-04-19T09:30:40.529Z,8.20
2018-04-19T09:33:08.222Z,8.03
2018-04-19T09:35:35.860Z,8.00
2018-04-19T09:38:03.471Z,7.00
2018-04-19T09:40:31.108Z,6.40
2018-04-19T09:42:58.770Z,8.03
2018-04-19T09:45:26.441Z,7.43
2018-04-19T09:47:54.086Z,7.40
2018-04-19T09:50:21.716Z,7.30
2018-04-19T09:52:49.351Z,7.47
2018-04-19T09:55:16.982Z,8.70
2018-04-19T09:57:56.420Z,8.73
2018-04-19T10:00:24.031Z,9.77
2018-04-19T10:02:51.662Z,9.30
2018-04-19T10:05:19.275Z,8.50
2018-04-19T10:07:46.965Z,8.57
2018-04-19T10:10:14.576Z,9.90
2018-04-19T10:12:42.353Z,10.17
2018-04-19T10:15:09.966Z,9.90
2018-04-19T10:17:37.631Z,8.53
2018-04-19T10:20:05.282Z,9.17
2018-04-19T10:22:32.915Z,9.63
2018-04-19T10:25:00.610Z,9.80
2018-04-19T10:27:28.324Z,8.63
2018-04-19T10:29:55.937Z,7.50
2018-04-19T10:32:23.571Z,9.13
2018-04-19T10:34:51.184Z,8.30
2018-04-19T10:37:18.919Z,8.17
2018-04-19T10:39:46.939Z,9.00
2018-04-19T10:42:14.571Z,9.43
2018-04-19T10:44:42.187Z,8.10
2018-04-19T10:47:09.823Z,8.93
2018-04-19T10:49:37.445Z,8.00
2018-04-19T10:52:05.083Z,8.80
2018-04-19T10:54:32.763Z,9.43
2018-04-19T10:57:00.933Z,8.20
2018-04-19T10:59:28.597Z,7.63
2018-04-19T11:01:56.232Z,8.10
2018-04-19T11:04:23.925Z,7.23
2018-04-19T11:06:51.587Z,5.40
2018-04-19T11:09:19.239Z,7.90
2018-04-19T11:11:46.883Z,6.23
2018-04-19T11:14:14.578Z,7.17
2018-04-19T11:16:42.239Z,6.43
2018-04-19T11:19:09.896Z,6.47
2018-04-19T11:21:37.661Z,7.17
2018-04-19T11:24:05.323Z,7.30
2018-04-19T11:26:33.089Z,7.23
2018-04-19T11:29:00.853Z,8.77
2018-04-19T11:31:28.515Z,6.80
2018-04-19T11:33:56.122Z,5.73
2018-04-19T11:36:23.840Z,7.27
2018-04-19T11:38:51.511Z,6.20
2018-04-19T11:41:19.124Z,6.37
2018-04-19T11:43:46.763Z,7.17
2018-04-19T11:46:14.490Z,6.30
2018-04-19T11:48:42.258Z,6.40
2018-04-19T11:51:10.020Z,6.60
2018-04-19T11:53:37.703Z,6.33
2018-04-19T11:56:05.353Z,6.90
2018-04-19T11:58:33.111Z,5.30
2018-04-19T12:01:00.833Z,5.33
2018-04-19T12:03:28.606Z,5.00
2018-04-19T12:05:56.297Z,5.20
2018-04-19T12:08:23.935Z,5.90
2018-04-19T12:10:51.631Z,5.17
2018-04-19T12:13:19.396Z,5.53
2018-04-19T12:15:47.007Z,6.57
2018-04-19T12:18:14.646Z,7.63
2018-04-19T12:20:42.260Z,6.10
2018-04-19T12:23:09.903Z,6.90
2018-04-19T12:25:37.512Z,6.47
2018-04-19T12:28:05.166Z,5.97
2018-04-19T12:30:32.835Z,6.87
2018-04-19T12:33:00.471Z,7.80
2018-04-19T12:35:28.087Z,6.10
2018-04-19T12:37:55.722Z,4.90
2018-04-19T12:40:23.391Z,6.57
2018-04-19T12:42:51.022Z,6.00
2018-04-19T12:45:18.639Z,5.53
2018-04-19T12:47:46.276Z,6.30
2018-04-19T12:50:13.924Z,5.93
2018-04-19T12:52:41.594Z,6.00
2018-04-19T12:55:09.199Z,6.73
2018-04-19T12:57:36.827Z,6.43
2018-04-19T13:00:04.434Z,6.10
2018-04-19T13:02:32.066Z,5.80
2018-04-19T13:04:59.671Z,5.87
2018-04-19T13:07:27.459Z,5.20
2018-04-19T13:09:55.131Z,6.00
2018-04-19T13:12:22.758Z,3.80
2018-04-19T13:14:50.371Z,4.93
2018-04-19T13:17:18.011Z,3.83
2018-04-19T13:19:45.638Z,4.00
2018-04-19T13:22:13.332Z,4.07
2018-04-19T13:24:41.003Z,3.80
2018-04-19T13:27:08.614Z,4.20
2018-04-19T13:29:36.238Z,4.03
2018-04-19T13:32:03.855Z,4.80
2018-04-19T13:34:31.490Z,4.10
2018-04-19T13:36:59.096Z,4.27
2018-04-19T13:39:26.736Z,4.23
2018-04-19T13:41:54.435Z,5.10
2018-04-19T13:44:22.070Z,4.30
2018-04-19T13:46:49.687Z,4.63
2018-04-19T13:49:17.314Z,4.40
2018-04-19T13:51:44.976Z,4.30
2018-04-19T13:54:12.611Z,4.67
2018-04-19T13:56:40.218Z,4.70
2018-04-19T13:59:07.862Z,4.67
2018-04-19T14:01:35.466Z,3.80
2018-04-19T14:04:03.090Z,3.80
2018-04-19T14:06:30.755Z,4.00
2018-04-19T14:08:58.391Z,4.00
2018-04-19T14:11:26.040Z,3.83
2018-04-19T14:13:53.676Z,4.07
2018-04-19T14:16:21.294Z,3.60
2018-04-19T14:18:48.925Z,4.07
2018-04-19T14:21:16.727Z,4.20
2018-04-19T14:23:44.382Z,3.83
2018-04-19T14:26:11.998Z,3.27
2018-04-19T14:28:39.811Z,3.70
2018-04-19T14:31:07.484Z,4.27
2018-04-19T14:33:35.139Z,3.97
2018-04-19T14:36:02.757Z,3.37
2018-04-19T14:38:30.391Z,4.50
2018-04-19T14:40:58.023Z,4.53
2018-04-19T14:43:25.787Z,3.93
2018-04-19T14:45:53.454Z,3.73
2018-04-19T14:48:21.091Z,4.20
2018-04-19T14:50:48.782Z,4.17
2018-04-19T14:53:16.441Z,4.23
2018-04-19T14:55:44.106Z,3.93
2018-04-19T14:58:11.772Z,4.27
2018-04-19T15:00:39.580Z,5.80
2018-04-19T15:03:07.530Z,4.23
2018-04-19T15:05:35.226Z,4.53
2018-04-19T15:08:02.877Z,4.20
2018-04-19T15:10:30.590Z,4.70
2018-04-19T15:12:58.241Z,4.43
2018-04-19T15:15:26.008Z,4.30
2018-04-19T15:17:53.678Z,4.93
2018-04-19T15:20:21.310Z,6.23
2018-04-19T15:22:49.104Z,6.20
2018-04-19T15:25:16.770Z,5.80
2018-04-19T15:27:45.363Z,6.50
2018-04-19T15:30:12.990Z,5.37
2018-04-19T15:32:40.607Z,5.50
2018-04-19T15:35:08.347Z,7.57
2018-04-19T15:37:36.552Z,7.23
2018-04-19T15:40:04.192Z,6.73
2018-04-19T15:42:31.803Z,6.80
2018-04-19T15:44:59.440Z,7.67
2018-04-19T15:47:27.183Z,6.97
2018-04-19T15:49:54.947Z,7.03
2018-04-19T15:52:22.587Z,6.80
2018-04-19T15:54:50.223Z,7.93
2018-04-19T15:57:17.835Z,6.07
2018-04-19T15:59:45.583Z,6.57
2018-04-19T16:02:13.282Z,6.40
2018-04-19T16:04:40.904Z,6.23
2018-04-19T16:07:08.566Z,5.80
2018-04-19T16:09:36.202Z,6.10
2018-04-19T16:12:03.834Z,6.67
2018-04-19T16:14:31.480Z,6.53
2018-04-19T16:16:59.123Z,5.83
2018-04-19T16:19:26.783Z,5.33
2018-04-19T16:21:54.399Z,5.63
2018-04-19T16:24:22.107Z,5.50
2018-04-19T16:26:49.868Z,4.53
2018-04-19T16:29:17.526Z,5.97
2018-04-19T16:31:45.136Z,5.30
2018-04-19T16:34:12.780Z,6.33
2018-04-19T16:36:40.391Z,5.03
2018-04-19T16:39:08.035Z,5.40
2018-04-19T16:41:35.642Z,5.10
2018-04-19T16:44:03.261Z,5.53
2018-04-19T16:46:30.892Z,5.90
2018-04-19T16:48:58.632Z,8.37
2018-04-19T16:51:26.270Z,16.00
2018-04-19T16:53:53.899Z,14.13
2018-04-19T16:56:21.538Z,14.10
2018-04-19T16:58:49.175Z,15.97
2018-04-19T17:01:16.856Z,16.67
2018-04-19T17:03:44.510Z,15.97
2018-04-19T17:06:12.158Z,17.07
2018-04-19T17:08:39.791Z,17.20
2018-04-19T17:11:07.490Z,15.67
2018-04-19T17:13:35.100Z,15.87
2018-04-19T17:16:02.810Z,16.80
2018-04-19T17:18:30.481Z,15.10
2018-04-19T17:20:58.132Z,15.37
2018-04-19T17:23:25.738Z,16.10
2018-04-19T17:25:53.382Z,16.33
2018-04-19T17:28:21.004Z,17.03
2018-04-19T17:30:48.682Z,15.67
2018-04-19T17:33:16.353Z,16.43
2018-04-19T17:35:44.113Z,15.87
2018-04-19T17:38:11.740Z,15.43
2018-04-19T17:40:39.828Z,16.33
2018-04-19T17:43:07.443Z,14.30
2018-04-19T17:45:35.074Z,14.13
2018-04-19T17:48:02.750Z,14.70
2018-04-19T17:50:30.398Z,13.50
2018-04-19T17:52:58.086Z,14.32
2018-04-19T17:55:25.731Z,18.40
2018-04-19T17:57:53.384Z,17.70
2018-04-19T18:00:21.043Z,16.17
2018-04-19T18:02:48.711Z,18.07
2018-04-19T18:05:16.352Z,15.00
2018-04-19T18:07:43.975Z,13.60
2018-04-19T18:10:11.619Z,13.00
2018-04-19T18:12:39.247Z,12.67
2018-04-19T18:15:06.886Z,11.83
2018-04-19T18:17:34.579Z,10.20
2018-04-19T18:20:02.232Z,9.97
2018-04-19T18:22:29.842Z,8.97
2018-04-19T18:24:57.459Z,8.23
2018-04-19T18:27:25.086Z,8.70
2018-04-19T18:29:52.698Z,8.20
2018-04-19T18:32:20.329Z,9.50
2018-04-19T18:34:48.012Z,8.20
2018-04-19T18:37:15.650Z,8.37
2018-04-19T18:39:43.340Z,6.80
2018-04-19T18:42:11.011Z,7.87
2018-04-19T18:44:38.628Z,7.33
2018-04-19T18:47:06.322Z,6.67
2018-04-19T18:49:33.938Z,7.00
2018-04-19T18:52:01.584Z,6.37
2018-04-19T18:54:29.210Z,6.00
2018-04-19T18:56:56.846Z,6.80
2018-04-19T18:59:24.532Z,6.60
2018-04-19T19:01:52.164Z,6.63
2018-04-19T19:04:19.859Z,7.20
2018-04-19T19:06:47.492Z,6.80
2018-04-19T19:09:15.221Z,6.17
2018-04-19T19:11:42.841Z,7.57
2018-04-19T19:14:10.450Z,6.60
2018-04-19T19:16:38.189Z,8.13
2018-04-19T19:19:17.820Z,6.77
2018-04-19T19:21:45.486Z,7.17
2018-04-19T19:24:13.134Z,7.07
2018-04-19T19:26:40.798Z,7.17
2018-04-19T19:29:08.434Z,7.83
2018-04-19T19:31:36.130Z,6.60
2018-04-19T19:34:03.790Z,7.03
2018-04-19T19:36:31.454Z,6.90
2018-04-19T19:38:59.083Z,6.63
2018-04-19T19:41:26.699Z,8.30
2018-04-19T19:43:54.439Z,8.10
2018-04-19T19:46:22.098Z,6.80
2018-04-19T19:48:49.743Z,8.07
2018-04-19T19:51:18.174Z,7.70
2018-04-19T19:53:45.806Z,6.73
2018-04-19T19:56:13.426Z,9.07
2018-04-19T19:58:41.135Z,8.43
2018-04-19T20:01:08.754Z,9.17
2018-04-19T20:03:36.454Z,7.00
2018-04-19T20:06:04.080Z,8.77
2018-04-19T20:08:31.734Z,8.57
2018-04-19T20:10:59.438Z,9.70
2018-04-19T20:13:27.098Z,9.40
2018-04-19T20:15:54.721Z,9.43
2018-04-19T20:18:22.430Z,9.20
2018-04-19T20:20:50.105Z,10.57
2018-04-19T20:23:17.759Z,9.00
2018-04-19T20:25:45.394Z,9.60
2018-04-19T20:28:13.084Z,9.80
2018-04-19T20:30:40.714Z,9.37
2018-04-19T20:33:08.327Z,9.73
2018-04-19T20:35:36.437Z,9.63
2018-04-19T20:38:04.050Z,8.30
2018-04-19T20:40:31.704Z,8.40
2018-04-19T20:42:59.372Z,10.50
2018-04-19T20:45:27.006Z,10.37
2018-04-19T20:47:54.685Z,10.10
2018-04-19T20:50:22.337Z,10.67
2018-04-19T20:52:49.955Z,10.90
2018-04-19T20:55:17.591Z,10.60
2018-04-19T20:57:45.207Z,10.73
2018-04-19T21:00:12.898Z,10.67
2018-04-19T21:02:40.561Z,9.20
2018-04-19T21:05:08.202Z,9.63
2018-04-19T21:07:35.928Z,9.93
2018-04-19T21:10:03.551Z,9.53
2018-04-19T21:12:31.176Z,10.27
2018-04-19T21:14:58.805Z,8.23
2018-04-19T21:17:26.414Z,10.33
2018-04-19T21:19:54.046Z,9.63
2018-04-19T21:22:21.754Z,10.47
2018-04-19T21:24:49.387Z,10.07
2018-04-19T21:27:17.078Z,9.90
2018-04-19T21:29:44.846Z,10.10
2018-04-19T21:32:12.607Z,11.20
2018-04-19T21:34:40.255Z,10.93
2018-04-19T21:37:07.894Z,10.80
2018-04-19T21:39:35.520Z,11.43
2018-04-19T21:42:03.208Z,10.90
2018-04-19T21:44:30.810Z,11.17
2018-04-19T21:46:58.451Z,10.73
2018-04-19T21:49:26.066Z,11.23
2018-04-19T21:51:53.802Z,11.97
2018-04-19T21:54:21.418Z,11.47
2018-04-19T21:56:49.059Z,11.30
2018-04-19T21:59:16.670Z,11.47
2018-04-19T22:01:44.392Z,11.90
2018-04-19T22:04:11.999Z,13.20
2018-04-19T22:06:39.644Z,12.30
2018-04-19T22:09:07.259Z,11.30
2018-04-19T22:11:35.008Z,11.97
2018-04-19T22:14:02.665Z,13.30
2018-04-19T22:16:30.330Z,12.37
2018-04-19T22:18:57.938Z,11.33
2018-04-19T22:21:25.588Z,12.33
2018-04-19T22:23:53.328Z,12.97
2018-04-19T22:26:20.974Z,13.00
2018-04-19T22:28:48.647Z,12.13
2018-04-19T22:31:16.292Z,12.00
2018-04-19T22:33:43.909Z,12.30
2018-04-19T22:36:11.553Z,13.70
2018-04-19T22:38:39.171Z,12.30
2018-04-19T22:41:06.822Z,12.23
2018-04-19T22:43:34.426Z,12.10
2018-04-19T22:46:02.074Z,11.80
2018-04-19T22:48:29.734Z,11.77
2018-04-19T22:50:57.344Z,12.47
2018-04-19T22:53:24.988Z,11.53
2018-04-19T22:55:52.612Z,11.97
2018-04-19T22:58:20.247Z,11.10
2018-04-19T23:00:47.959Z,11.10
2018-04-19T23:03:15.594Z,10.87
2018-04-19T23:05:43.211Z,12.30
2018-04-19T23:08:10.851Z,12.10
2018-04-19T23:10:38.458Z,10.10
2018-04-19T23:13:06.103Z,12.27
2018-04-19T23:15:33.823Z,11.60
2018-04-19T23:18:01.492Z,12.90
2018-04-19T23:20:29.141Z,12.53
2018-04-19T23:22:56.774Z,13.80
2018-04-19T23:25:24.386Z,13.70
2018-04-19T23:27:52.028Z,13.30
2018-04-19T23:30:19.704Z,13.03
2018-04-19T23:32:47.352Z,13.37
2018-04-19T23:35:14.967Z,13.17
2018-04-19T23:37:42.695Z,15.33
2018-04-19T23:40:10.341Z,13.17
2018-04-19T23:42:37.974Z,13.20
2018-04-19T23:45:05.668Z,14.70
2018-04-19T23:47:33.334Z,14.37
2018-04-19T23:50:00.952Z,13.10
2018-04-19T23:52:28.658Z,15.37
2018-04-19T23:54:56.314Z,16.00
2018-04-19T23:57:23.969Z,14.93
2018-04-19T23:59:51.651Z,16.37
